sensor_id;sensor_type;location;lat;lon;timestamp;temperature;humidity
42097;DHT22;27754;45.414;11.084;2023-02-11T00:01:08;-3276.30;69.70
42097;DHT22;27754;45.414;11.084;2023-02-11T00:03:35;-3276.30;69.90
42097;DHT22;27754;45.414;11.084;2023-02-11T00:06:05;-3276.30;69.70
42097;DHT22;27754;45.414;11.084;2023-02-11T00:08:35;-3276.30;69.50
42097;DHT22;27754;45.414;11.084;2023-02-11T00:11:02;-3276.30;69.40
42097;DHT22;27754;45.414;11.084;2023-02-11T00:13:29;-3276.30;69.20
42097;DHT22;27754;45.414;11.084;2023-02-11T00:15:56;-3276.30;68.90
42097;DHT22;27754;45.414;11.084;2023-02-11T00:18:23;-3276.30;68.70
42097;DHT22;27754;45.414;11.084;2023-02-11T00:20:50;-3276.30;68.50
42097;DHT22;27754;45.414;11.084;2023-02-11T00:23:17;-3276.30;68.30
42097;DHT22;27754;45.414;11.084;2023-02-11T00:25:44;-3276.30;68.10
42097;DHT22;27754;45.414;11.084;2023-02-11T00:28:11;-3276.30;68.20
42097;DHT22;27754;45.414;11.084;2023-02-11T00:30:39;-3276.30;68.20
42097;DHT22;27754;45.414;11.084;2023-02-11T00:33:07;-3276.30;68.20
42097;DHT22;27754;45.414;11.084;2023-02-11T00:35:36;-3276.30;68.60
42097;DHT22;27754;45.414;11.084;2023-02-11T00:38:06;-3276.30;69.60
42097;DHT22;27754;45.414;11.084;2023-02-11T00:40:33;-3276.40;69.80
42097;DHT22;27754;45.414;11.084;2023-02-11T00:43:02;-3276.40;69.60
42097;DHT22;27754;45.414;11.084;2023-02-11T00:45:29;-3276.40;69.30
42097;DHT22;27754;45.414;11.084;2023-02-11T00:47:56;-3276.50;68.50
42097;DHT22;27754;45.414;11.084;2023-02-11T00:50:23;-3276.50;67.60
42097;DHT22;27754;45.414;11.084;2023-02-11T00:52:50;-3276.50;67.30
42097;DHT22;27754;45.414;11.084;2023-02-11T00:55:17;-3276.50;67.70
42097;DHT22;27754;45.414;11.084;2023-02-11T00:57:44;-3276.50;67.50
42097;DHT22;27754;45.414;11.084;2023-02-11T01:00:12;-3276.60;67.50
42097;DHT22;27754;45.414;11.084;2023-02-11T01:05:44;-3276.60;67.10
42097;DHT22;27754;45.414;11.084;2023-02-11T01:08:30;-3276.60;67.60
42097;DHT22;27754;45.414;11.084;2023-02-11T01:10:59;-3276.50;68.00
42097;DHT22;27754;45.414;11.084;2023-02-11T01:13:28;-3276.60;68.30
42097;DHT22;27754;45.414;11.084;2023-02-11T01:15:55;-3276.50;69.00
42097;DHT22;27754;45.414;11.084;2023-02-11T01:21:21;-3276.40;68.80
42097;DHT22;27754;45.414;11.084;2023-02-11T01:23:50;-3276.40;69.80
42097;DHT22;27754;45.414;11.084;2023-02-11T01:26:18;-3276.40;70.00
42097;DHT22;27754;45.414;11.084;2023-02-11T01:28:45;-3276.50;70.00
42097;DHT22;27754;45.414;11.084;2023-02-11T01:31:13;-3276.50;69.90
42097;DHT22;27754;45.414;11.084;2023-02-11T01:33:40;-3276.50;69.70
42097;DHT22;27754;45.414;11.084;2023-02-11T01:36:10;-3276.50;70.10
42097;DHT22;27754;45.414;11.084;2023-02-11T01:38:37;-3276.40;70.10
42097;DHT22;27754;45.414;11.084;2023-02-11T01:41:09;-3276.50;69.90
42097;DHT22;27754;45.414;11.084;2023-02-11T01:43:46;-3276.50;69.60
42097;DHT22;27754;45.414;11.084;2023-02-11T01:49:15;-3276.50;68.20
42097;DHT22;27754;45.414;11.084;2023-02-11T01:52:05;-3276.40;68.10
42097;DHT22;27754;45.414;11.084;2023-02-11T01:54:36;-3276.40;67.00
42097;DHT22;27754;45.414;11.084;2023-02-11T01:57:28;-3276.50;66.20
42097;DHT22;27754;45.414;11.084;2023-02-11T02:00:16;-3276.50;65.20
42097;DHT22;27754;45.414;11.084;2023-02-11T02:10:49;-3276.40;66.30
42097;DHT22;27754;45.414;11.084;2023-02-11T02:13:20;-3276.40;67.10
42097;DHT22;27754;45.414;11.084;2023-02-11T02:18:29;-3276.30;68.00
42097;DHT22;27754;45.414;11.084;2023-02-11T02:33:13;-3276.40;64.30
42097;DHT22;27754;45.414;11.084;2023-02-11T02:38:34;-3276.10;68.70
42097;DHT22;27754;45.414;11.084;2023-02-11T02:41:07;-3276.20;66.60
42097;DHT22;27754;45.414;11.084;2023-02-11T02:43:37;-3276.30;65.80
42097;DHT22;27754;45.414;11.084;2023-02-11T02:46:26;-3276.20;65.30
42097;DHT22;27754;45.414;11.084;2023-02-11T02:48:54;-3276.30;65.50
42097;DHT22;27754;45.414;11.084;2023-02-11T03:00:40;-3276.30;67.50
42097;DHT22;27754;45.414;11.084;2023-02-11T03:03:25;-3276.20;68.10
42097;DHT22;27754;45.414;11.084;2023-02-11T03:06:02;-3275.90;67.90
42097;DHT22;27754;45.414;11.084;2023-02-11T03:08:51;-3275.90;68.80
42097;DHT22;27754;45.414;11.084;2023-02-11T03:11:21;-3275.80;68.80
42097;DHT22;27754;45.414;11.084;2023-02-11T03:13:49;-3275.80;70.10
42097;DHT22;27754;45.414;11.084;2023-02-11T03:16:23;-3275.60;70.60
42097;DHT22;27754;45.414;11.084;2023-02-11T03:19:03;-3275.60;71.40
42097;DHT22;27754;45.414;11.084;2023-02-11T03:21:35;-3275.60;71.20
42097;DHT22;27754;45.414;11.084;2023-02-11T03:24:07;-3275.50;71.50
42097;DHT22;27754;45.414;11.084;2023-02-11T03:37:04;-3275.20;74.30
42097;DHT22;27754;45.414;11.084;2023-02-11T03:39:39;-3275.30;74.60
42097;DHT22;27754;45.414;11.084;2023-02-11T03:42:09;-3275.30;75.00
42097;DHT22;27754;45.414;11.084;2023-02-11T03:44:43;-3275.30;74.20
42097;DHT22;27754;45.414;11.084;2023-02-11T03:47:12;-3275.30;73.30
42097;DHT22;27754;45.414;11.084;2023-02-11T03:49:42;-3275.20;73.80
42097;DHT22;27754;45.414;11.084;2023-02-11T03:52:12;-3275.20;74.60
42097;DHT22;27754;45.414;11.084;2023-02-11T03:54:41;-3275.20;74.70
42097;DHT22;27754;45.414;11.084;2023-02-11T03:57:09;-3275.30;74.60
42097;DHT22;27754;45.414;11.084;2023-02-11T03:59:50;-3275.20;74.30
42097;DHT22;27754;45.414;11.084;2023-02-11T04:02:17;-3275.20;74.10
42097;DHT22;27754;45.414;11.084;2023-02-11T04:04:44;-3275.20;74.10
42097;DHT22;27754;45.414;11.084;2023-02-11T04:07:12;-3275.30;74.00
42097;DHT22;27754;45.414;11.084;2023-02-11T04:09:39;-3275.10;73.30
42097;DHT22;27754;45.414;11.084;2023-02-11T04:12:06;-3275.10;74.10
42097;DHT22;27754;45.414;11.084;2023-02-11T04:14:33;-3275.10;74.00
42097;DHT22;27754;45.414;11.084;2023-02-11T04:17:01;-3275.10;73.50
42097;DHT22;27754;45.414;11.084;2023-02-11T04:19:28;-3275.10;73.60
42097;DHT22;27754;45.414;11.084;2023-02-11T04:21:55;-3275.00;73.10
42097;DHT22;27754;45.414;11.084;2023-02-11T04:24:22;-3274.80;73.00
42097;DHT22;27754;45.414;11.084;2023-02-11T04:26:49;-3274.90;73.70
42097;DHT22;27754;45.414;11.084;2023-02-11T04:29:16;-3274.90;73.60
42097;DHT22;27754;45.414;11.084;2023-02-11T04:31:43;-3274.80;73.80
42097;DHT22;27754;45.414;11.084;2023-02-11T04:34:10;-3274.70;74.50
42097;DHT22;27754;45.414;11.084;2023-02-11T04:36:37;-3274.70;75.20
42097;DHT22;27754;45.414;11.084;2023-02-11T04:39:04;-3274.70;75.50
42097;DHT22;27754;45.414;11.084;2023-02-11T04:41:31;-3274.70;75.50
42097;DHT22;27754;45.414;11.084;2023-02-11T04:43:58;-3274.60;76.20
42097;DHT22;27754;45.414;11.084;2023-02-11T04:46:25;-3274.70;76.40
42097;DHT22;27754;45.414;11.084;2023-02-11T04:48:52;-3274.70;76.90
42097;DHT22;27754;45.414;11.084;2023-02-11T04:51:19;-3274.70;76.50
42097;DHT22;27754;45.414;11.084;2023-02-11T04:53:46;-3274.70;75.90
42097;DHT22;27754;45.414;11.084;2023-02-11T04:56:13;-3274.80;75.70
42097;DHT22;27754;45.414;11.084;2023-02-11T04:58:40;-3274.80;75.30
42097;DHT22;27754;45.414;11.084;2023-02-11T05:01:09;-3274.80;75.80
42097;DHT22;27754;45.414;11.084;2023-02-11T05:03:37;-3274.90;75.80
42097;DHT22;27754;45.414;11.084;2023-02-11T05:06:04;-3274.90;75.50
42097;DHT22;27754;45.414;11.084;2023-02-11T05:08:31;-3275.00;74.90
42097;DHT22;27754;45.414;11.084;2023-02-11T05:10:58;-3275.00;72.70
42097;DHT22;27754;45.414;11.084;2023-02-11T05:13:29;-3275.10;72.40
42097;DHT22;27754;45.414;11.084;2023-02-11T05:15:56;-3275.10;72.00
42097;DHT22;27754;45.414;11.084;2023-02-11T05:18:23;-3275.10;73.30
42097;DHT22;27754;45.414;11.084;2023-02-11T05:20:50;-3275.10;73.20
42097;DHT22;27754;45.414;11.084;2023-02-11T05:23:17;-3275.00;73.70
42097;DHT22;27754;45.414;11.084;2023-02-11T05:25:44;-3275.10;73.70
42097;DHT22;27754;45.414;11.084;2023-02-11T05:28:11;-3275.00;73.60
42097;DHT22;27754;45.414;11.084;2023-02-11T05:30:37;-3275.00;74.00
42097;DHT22;27754;45.414;11.084;2023-02-11T05:33:04;-3275.10;73.40
42097;DHT22;27754;45.414;11.084;2023-02-11T05:35:31;-3275.00;73.30
42097;DHT22;27754;45.414;11.084;2023-02-11T05:37:58;-3274.90;73.70
42097;DHT22;27754;45.414;11.084;2023-02-11T05:40:25;-3275.00;73.60
42097;DHT22;27754;45.414;11.084;2023-02-11T05:42:52;-3274.90;73.40
42097;DHT22;27754;45.414;11.084;2023-02-11T05:45:19;-3274.90;73.70
42097;DHT22;27754;45.414;11.084;2023-02-11T05:47:46;-3274.80;73.60
42097;DHT22;27754;45.414;11.084;2023-02-11T05:50:13;-3274.90;74.00
42097;DHT22;27754;45.414;11.084;2023-02-11T05:52:40;-3274.90;73.90
42097;DHT22;27754;45.414;11.084;2023-02-11T05:55:07;-3274.70;74.40
42097;DHT22;27754;45.414;11.084;2023-02-11T05:57:34;-3274.60;74.90
42097;DHT22;27754;45.414;11.084;2023-02-11T06:00:02;-3274.50;74.80
42097;DHT22;27754;45.414;11.084;2023-02-11T06:02:38;-3274.30;76.30
42097;DHT22;27754;45.414;11.084;2023-02-11T06:05:05;-3274.20;77.00
42097;DHT22;27754;45.414;11.084;2023-02-11T06:07:32;-3274.30;77.00
42097;DHT22;27754;45.414;11.084;2023-02-11T06:10:00;-3274.30;76.90
42097;DHT22;27754;45.414;11.084;2023-02-11T06:12:27;-3274.40;76.00
42097;DHT22;27754;45.414;11.084;2023-02-11T06:14:53;-3274.50;75.50
42097;DHT22;27754;45.414;11.084;2023-02-11T06:17:20;-3274.60;75.30
42097;DHT22;27754;45.414;11.084;2023-02-11T06:19:49;-3274.50;74.80
42097;DHT22;27754;45.414;11.084;2023-02-11T06:22:15;-3274.60;75.00
42097;DHT22;27754;45.414;11.084;2023-02-11T06:24:42;-3274.70;75.00
42097;DHT22;27754;45.414;11.084;2023-02-11T06:27:27;-3274.70;74.50
42097;DHT22;27754;45.414;11.084;2023-02-11T06:29:54;-3274.70;74.90
42097;DHT22;27754;45.414;11.084;2023-02-11T06:32:21;-3274.80;74.80
42097;DHT22;27754;45.414;11.084;2023-02-11T06:35:09;-3274.90;74.80
42097;DHT22;27754;45.414;11.084;2023-02-11T06:37:38;-3274.90;74.60
42097;DHT22;27754;45.414;11.084;2023-02-11T06:40:06;-3274.90;74.50
42097;DHT22;27754;45.414;11.084;2023-02-11T06:42:33;-3275.00;74.60
42097;DHT22;27754;45.414;11.084;2023-02-11T06:45:02;-3275.10;74.10
42097;DHT22;27754;45.414;11.084;2023-02-11T06:47:32;-3275.10;74.40
42097;DHT22;27754;45.414;11.084;2023-02-11T06:49:59;-3275.10;74.00
42097;DHT22;27754;45.414;11.084;2023-02-11T06:52:26;-3275.20;74.10
42097;DHT22;27754;45.414;11.084;2023-02-11T06:54:53;-3275.30;74.10
42097;DHT22;27754;45.414;11.084;2023-02-11T06:57:19;-3275.30;74.40
42097;DHT22;27754;45.414;11.084;2023-02-11T06:59:46;-3275.40;74.30
42097;DHT22;27754;45.414;11.084;2023-02-11T07:02:13;-3275.60;74.30
42097;DHT22;27754;45.414;11.084;2023-02-11T07:04:40;-3275.60;73.70
42097;DHT22;27754;45.414;11.084;2023-02-11T07:07:07;-3275.70;73.90
42097;DHT22;27754;45.414;11.084;2023-02-11T07:09:34;-3275.70;74.10
42097;DHT22;27754;45.414;11.084;2023-02-11T07:12:01;-3275.70;74.00
42097;DHT22;27754;45.414;11.084;2023-02-11T07:14:28;-3275.80;73.50
42097;DHT22;27754;45.414;11.084;2023-02-11T07:16:55;-3276.00;72.60
42097;DHT22;27754;45.414;11.084;2023-02-11T07:19:22;-3276.10;72.10
42097;DHT22;27754;45.414;11.084;2023-02-11T07:21:49;-3276.10;72.50
42097;DHT22;27754;45.414;11.084;2023-02-11T07:24:16;-3276.20;72.50
42097;DHT22;27754;45.414;11.084;2023-02-11T07:26:43;-3276.20;70.90
42097;DHT22;27754;45.414;11.084;2023-02-11T07:29:10;-3276.20;69.50
42097;DHT22;27754;45.414;11.084;2023-02-11T07:31:37;-3276.40;68.80
42097;DHT22;27754;45.414;11.084;2023-02-11T07:34:04;-3276.60;68.30
42097;DHT22;27754;45.414;11.084;2023-02-11T07:36:31;0.00;68.00
42097;DHT22;27754;45.414;11.084;2023-02-11T07:38:58;0.20;67.10
42097;DHT22;27754;45.414;11.084;2023-02-11T07:41:26;0.40;67.30
42097;DHT22;27754;45.414;11.084;2023-02-11T07:43:53;0.40;68.20
42097;DHT22;27754;45.414;11.084;2023-02-11T07:46:23;0.50;69.30
42097;DHT22;27754;45.414;11.084;2023-02-11T07:48:50;0.50;70.30
42097;DHT22;27754;45.414;11.084;2023-02-11T07:51:23;0.60;70.40
42097;DHT22;27754;45.414;11.084;2023-02-11T07:53:50;0.60;70.20
42097;DHT22;27754;45.414;11.084;2023-02-11T07:56:19;0.70;71.10
42097;DHT22;27754;45.414;11.084;2023-02-11T07:58:47;0.80;70.70
42097;DHT22;27754;45.414;11.084;2023-02-11T08:01:18;0.90;71.10
42097;DHT22;27754;45.414;11.084;2023-02-11T08:03:45;1.10;70.90
42097;DHT22;27754;45.414;11.084;2023-02-11T08:06:14;1.20;70.60
42097;DHT22;27754;45.414;11.084;2023-02-11T08:08:42;1.30;70.90
42097;DHT22;27754;45.414;11.084;2023-02-11T08:11:15;1.40;70.40
42097;DHT22;27754;45.414;11.084;2023-02-11T08:13:43;1.60;70.20
42097;DHT22;27754;45.414;11.084;2023-02-11T08:16:18;1.70;70.40
42097;DHT22;27754;45.414;11.084;2023-02-11T08:18:46;1.70;70.00
42097;DHT22;27754;45.414;11.084;2023-02-11T08:21:13;1.80;69.90
42097;DHT22;27754;45.414;11.084;2023-02-11T08:23:42;2.00;70.10
42097;DHT22;27754;45.414;11.084;2023-02-11T08:26:16;2.20;69.80
42097;DHT22;27754;45.414;11.084;2023-02-11T08:28:44;2.20;69.40
42097;DHT22;27754;45.414;11.084;2023-02-11T08:31:17;2.40;70.30
42097;DHT22;27754;45.414;11.084;2023-02-11T08:33:45;2.50;68.60
42097;DHT22;27754;45.414;11.084;2023-02-11T08:36:19;2.60;67.70
42097;DHT22;27754;45.414;11.084;2023-02-11T08:38:46;2.70;67.40
42097;DHT22;27754;45.414;11.084;2023-02-11T08:41:14;2.80;66.00
42097;DHT22;27754;45.414;11.084;2023-02-11T08:43:42;2.80;66.10
42097;DHT22;27754;45.414;11.084;2023-02-11T08:46:15;2.90;65.70
42097;DHT22;27754;45.414;11.084;2023-02-11T08:48:43;3.00;64.90
42097;DHT22;27754;45.414;11.084;2023-02-11T08:51:14;3.00;64.10
42097;DHT22;27754;45.414;11.084;2023-02-11T08:53:41;3.00;64.00
42097;DHT22;27754;45.414;11.084;2023-02-11T08:56:09;3.00;64.10
42097;DHT22;27754;45.414;11.084;2023-02-11T08:58:39;3.10;64.30
42097;DHT22;27754;45.414;11.084;2023-02-11T09:01:17;3.10;65.20
42097;DHT22;27754;45.414;11.084;2023-02-11T09:03:48;3.20;65.20
42097;DHT22;27754;45.414;11.084;2023-02-11T09:06:15;3.40;64.50
42097;DHT22;27754;45.414;11.084;2023-02-11T09:08:46;3.50;63.60
42097;DHT22;27754;45.414;11.084;2023-02-11T09:11:15;3.60;63.30
42097;DHT22;27754;45.414;11.084;2023-02-11T09:13:45;3.50;62.70
42097;DHT22;27754;45.414;11.084;2023-02-11T09:16:17;3.50;62.00
42097;DHT22;27754;45.414;11.084;2023-02-11T09:18:45;3.60;62.50
42097;DHT22;27754;45.414;11.084;2023-02-11T09:21:13;3.80;62.00
42097;DHT22;27754;45.414;11.084;2023-02-11T09:23:41;3.80;61.60
42097;DHT22;27754;45.414;11.084;2023-02-11T09:26:18;3.80;62.30
42097;DHT22;27754;45.414;11.084;2023-02-11T09:28:46;3.90;62.50
42097;DHT22;27754;45.414;11.084;2023-02-11T09:31:15;4.20;62.50
42097;DHT22;27754;45.414;11.084;2023-02-11T09:33:44;4.20;62.60
42097;DHT22;27754;45.414;11.084;2023-02-11T09:36:18;4.30;61.50
42097;DHT22;27754;45.414;11.084;2023-02-11T09:38:46;4.20;60.60
42097;DHT22;27754;45.414;11.084;2023-02-11T09:44:26;4.30;62.10
42097;DHT22;27754;45.414;11.084;2023-02-11T09:50:10;4.30;62.40
42097;DHT22;27754;45.414;11.084;2023-02-11T09:55:23;4.60;59.80
42097;DHT22;27754;45.414;11.084;2023-02-11T09:57:51;4.70;60.20
42097;DHT22;27754;45.414;11.084;2023-02-11T10:05:49;4.80;58.30
42097;DHT22;27754;45.414;11.084;2023-02-11T10:11:15;5.00;58.80
42097;DHT22;27754;45.414;11.084;2023-02-11T10:16:37;5.10;57.90
42097;DHT22;27754;45.414;11.084;2023-02-11T10:24:21;5.40;56.60
42097;DHT22;27754;45.414;11.084;2023-02-11T10:26:51;5.60;56.80
42097;DHT22;27754;45.414;11.084;2023-02-11T10:29:41;5.70;56.60
42097;DHT22;27754;45.414;11.084;2023-02-11T10:32:46;5.70;56.40
42097;DHT22;27754;45.414;11.084;2023-02-11T10:35:18;5.80;56.60
42097;DHT22;27754;45.414;11.084;2023-02-11T10:37:47;5.90;56.70
42097;DHT22;27754;45.414;11.084;2023-02-11T10:40:20;5.90;57.20
42097;DHT22;27754;45.414;11.084;2023-02-11T10:42:56;5.80;56.50
42097;DHT22;27754;45.414;11.084;2023-02-11T10:45:46;5.90;57.70
42097;DHT22;27754;45.414;11.084;2023-02-11T10:48:49;5.90;57.70
42097;DHT22;27754;45.414;11.084;2023-02-11T10:51:24;5.90;57.40
42097;DHT22;27754;45.414;11.084;2023-02-11T10:56:36;5.70;57.70
42097;DHT22;27754;45.414;11.084;2023-02-11T10:59:27;5.60;57.80
42097;DHT22;27754;45.414;11.084;2023-02-11T11:01:57;5.60;58.20
42097;DHT22;27754;45.414;11.084;2023-02-11T11:07:22;5.70;58.20
42097;DHT22;27754;45.414;11.084;2023-02-11T11:09:53;5.90;57.60
42097;DHT22;27754;45.414;11.084;2023-02-11T11:12:33;5.90;57.00
42097;DHT22;27754;45.414;11.084;2023-02-11T11:17:37;6.20;55.30
42097;DHT22;27754;45.414;11.084;2023-02-11T11:20:26;6.40;55.30
42097;DHT22;27754;45.414;11.084;2023-02-11T11:23:20;6.70;55.30
42097;DHT22;27754;45.414;11.084;2023-02-11T11:26:04;6.90;54.90
42097;DHT22;27754;45.414;11.084;2023-02-11T11:28:52;7.10;54.70
42097;DHT22;27754;45.414;11.084;2023-02-11T11:31:27;7.40;53.60
42097;DHT22;27754;45.414;11.084;2023-02-11T11:33:57;7.40;53.60
42097;DHT22;27754;45.414;11.084;2023-02-11T11:36:34;7.50;53.40
42097;DHT22;27754;45.414;11.084;2023-02-11T11:39:32;7.50;52.40
42097;DHT22;27754;45.414;11.084;2023-02-11T11:42:02;7.40;52.10
42097;DHT22;27754;45.414;11.084;2023-02-11T11:44:35;7.40;52.60
42097;DHT22;27754;45.414;11.084;2023-02-11T11:47:17;7.40;53.10
42097;DHT22;27754;45.414;11.084;2023-02-11T11:50:10;7.30;52.80
42097;DHT22;27754;45.414;11.084;2023-02-11T11:52:58;7.10;53.50
42097;DHT22;27754;45.414;11.084;2023-02-11T11:55:47;7.10;53.10
42097;DHT22;27754;45.414;11.084;2023-02-11T11:58:21;7.10;53.80
42097;DHT22;27754;45.414;11.084;2023-02-11T12:09:47;7.00;55.20
42097;DHT22;27754;45.414;11.084;2023-02-11T12:20:31;7.30;55.20
42097;DHT22;27754;45.414;11.084;2023-02-11T12:23:42;7.40;55.60
42097;DHT22;27754;45.414;11.084;2023-02-11T12:26:22;7.50;55.90
42097;DHT22;27754;45.414;11.084;2023-02-11T12:37:23;7.60;55.90
42097;DHT22;27754;45.414;11.084;2023-02-11T12:40:32;7.70;55.50
42097;DHT22;27754;45.414;11.084;2023-02-11T12:43:21;7.70;55.60
42097;DHT22;27754;45.414;11.084;2023-02-11T12:46:11;7.80;55.80
42097;DHT22;27754;45.414;11.084;2023-02-11T12:52:11;8.00;54.30
42097;DHT22;27754;45.414;11.084;2023-02-11T12:54:57;8.10;53.50
42097;DHT22;27754;45.414;11.084;2023-02-11T12:57:28;8.30;53.30
42097;DHT22;27754;45.414;11.084;2023-02-11T13:00:06;8.40;53.50
42097;DHT22;27754;45.414;11.084;2023-02-11T13:05:26;8.80;52.40
42097;DHT22;27754;45.414;11.084;2023-02-11T13:08:02;9.00;52.30
42097;DHT22;27754;45.414;11.084;2023-02-11T13:10:39;9.00;52.30
42097;DHT22;27754;45.414;11.084;2023-02-11T13:13:21;9.10;52.60
42097;DHT22;27754;45.414;11.084;2023-02-11T13:16:03;9.30;53.10
42097;DHT22;27754;45.414;11.084;2023-02-11T13:18:55;9.30;53.10
42097;DHT22;27754;45.414;11.084;2023-02-11T13:21:35;9.20;53.40
42097;DHT22;27754;45.414;11.084;2023-02-11T13:38:25;8.70;55.80
42097;DHT22;27754;45.414;11.084;2023-02-11T13:41:17;8.80;55.90
42097;DHT22;27754;45.414;11.084;2023-02-11T13:46:24;9.00;55.40
42097;DHT22;27754;45.414;11.084;2023-02-11T13:48:53;9.10;54.80
42097;DHT22;27754;45.414;11.084;2023-02-11T13:51:41;9.20;54.60
42097;DHT22;27754;45.414;11.084;2023-02-11T13:54:28;9.30;54.40
42097;DHT22;27754;45.414;11.084;2023-02-11T13:57:26;9.40;53.40
42097;DHT22;27754;45.414;11.084;2023-02-11T13:59:55;9.40;52.60
42097;DHT22;27754;45.414;11.084;2023-02-11T14:02:28;9.40;52.50
42097;DHT22;27754;45.414;11.084;2023-02-11T14:08:18;9.50;52.10
42097;DHT22;27754;45.414;11.084;2023-02-11T14:16:22;9.60;52.00
42097;DHT22;27754;45.414;11.084;2023-02-11T14:19:03;9.50;51.90
42097;DHT22;27754;45.414;11.084;2023-02-11T14:21:37;9.50;52.00
42097;DHT22;27754;45.414;11.084;2023-02-11T14:26:55;9.60;51.90
42097;DHT22;27754;45.414;11.084;2023-02-11T14:40:35;9.40;51.40
42097;DHT22;27754;45.414;11.084;2023-02-11T14:43:27;9.40;51.40
42097;DHT22;27754;45.414;11.084;2023-02-11T14:45:56;9.40;50.90
42097;DHT22;27754;45.414;11.084;2023-02-11T14:48:32;9.30;51.00
42097;DHT22;27754;45.414;11.084;2023-02-11T14:51:27;9.30;51.10
42097;DHT22;27754;45.414;11.084;2023-02-11T14:54:02;9.20;51.00
42097;DHT22;27754;45.414;11.084;2023-02-11T14:56:30;9.20;51.10
42097;DHT22;27754;45.414;11.084;2023-02-11T14:59:00;9.20;51.10
42097;DHT22;27754;45.414;11.084;2023-02-11T15:01:32;9.10;51.00
42097;DHT22;27754;45.414;11.084;2023-02-11T15:04:02;9.10;50.30
42097;DHT22;27754;45.414;11.084;2023-02-11T15:09:05;9.10;48.60
42097;DHT22;27754;45.414;11.084;2023-02-11T15:11:38;9.10;48.60
42097;DHT22;27754;45.414;11.084;2023-02-11T15:14:09;9.00;48.80
42097;DHT22;27754;45.414;11.084;2023-02-11T15:16:41;9.00;49.40
42097;DHT22;27754;45.414;11.084;2023-02-11T15:19:20;8.90;49.30
42097;DHT22;27754;45.414;11.084;2023-02-11T15:21:49;8.90;49.70
42097;DHT22;27754;45.414;11.084;2023-02-11T15:24:29;8.90;49.70
42097;DHT22;27754;45.414;11.084;2023-02-11T15:27:03;8.80;49.90
42097;DHT22;27754;45.414;11.084;2023-02-11T15:29:44;8.80;50.30
42097;DHT22;27754;45.414;11.084;2023-02-11T15:32:17;8.70;50.30
42097;DHT22;27754;45.414;11.084;2023-02-11T15:34:46;8.70;50.40
42097;DHT22;27754;45.414;11.084;2023-02-11T15:37:20;8.70;50.50
42097;DHT22;27754;45.414;11.084;2023-02-11T15:39:47;8.60;50.80
42097;DHT22;27754;45.414;11.084;2023-02-11T15:42:28;8.60;50.70
42097;DHT22;27754;45.414;11.084;2023-02-11T15:47:48;8.40;51.10
42097;DHT22;27754;45.414;11.084;2023-02-11T15:52:46;8.40;51.40
42097;DHT22;27754;45.414;11.084;2023-02-11T15:55:15;8.30;51.60
42097;DHT22;27754;45.414;11.084;2023-02-11T15:58:01;8.20;52.00
42097;DHT22;27754;45.414;11.084;2023-02-11T16:00:34;8.20;52.20
42097;DHT22;27754;45.414;11.084;2023-02-11T16:03:02;8.10;52.50
42097;DHT22;27754;45.414;11.084;2023-02-11T16:05:35;8.00;52.90
42097;DHT22;27754;45.414;11.084;2023-02-11T16:08:22;7.90;53.00
42097;DHT22;27754;45.414;11.084;2023-02-11T16:11:01;7.90;53.20
42097;DHT22;27754;45.414;11.084;2023-02-11T16:13:45;7.80;53.40
42097;DHT22;27754;45.414;11.084;2023-02-11T16:16:22;7.60;53.70
42097;DHT22;27754;45.414;11.084;2023-02-11T16:18:52;7.50;54.10
42097;DHT22;27754;45.414;11.084;2023-02-11T16:21:35;7.50;54.20
42097;DHT22;27754;45.414;11.084;2023-02-11T16:24:13;7.40;54.80
42097;DHT22;27754;45.414;11.084;2023-02-11T16:26:48;7.30;55.20
42097;DHT22;27754;45.414;11.084;2023-02-11T16:29:18;7.20;55.40
42097;DHT22;27754;45.414;11.084;2023-02-11T16:31:48;7.10;55.70
42097;DHT22;27754;45.414;11.084;2023-02-11T16:34:24;7.00;56.30
42097;DHT22;27754;45.414;11.084;2023-02-11T16:36:51;6.90;56.60
42097;DHT22;27754;45.414;11.084;2023-02-11T16:39:19;6.80;57.30
42097;DHT22;27754;45.414;11.084;2023-02-11T16:41:50;6.70;57.60
42097;DHT22;27754;45.414;11.084;2023-02-11T16:44:17;6.60;57.80
42097;DHT22;27754;45.414;11.084;2023-02-11T16:46:44;6.40;58.20
42097;DHT22;27754;45.414;11.084;2023-02-11T16:49:23;6.40;58.50
42097;DHT22;27754;45.414;11.084;2023-02-11T16:51:52;6.30;59.00
42097;DHT22;27754;45.414;11.084;2023-02-11T16:54:19;6.20;59.20
42097;DHT22;27754;45.414;11.084;2023-02-11T16:56:46;6.10;59.20
42097;DHT22;27754;45.414;11.084;2023-02-11T16:59:13;6.00;59.60
42097;DHT22;27754;45.414;11.084;2023-02-11T17:01:41;5.90;59.80
42097;DHT22;27754;45.414;11.084;2023-02-11T17:04:20;5.90;60.10
42097;DHT22;27754;45.414;11.084;2023-02-11T17:06:49;5.80;60.40
42097;DHT22;27754;45.414;11.084;2023-02-11T17:09:24;5.70;60.70
42097;DHT22;27754;45.414;11.084;2023-02-11T17:11:55;5.60;61.00
42097;DHT22;27754;45.414;11.084;2023-02-11T17:14:22;5.50;61.40
42097;DHT22;27754;45.414;11.084;2023-02-11T17:16:49;5.40;61.70
42097;DHT22;27754;45.414;11.084;2023-02-11T17:19:18;5.40;61.60
42097;DHT22;27754;45.414;11.084;2023-02-11T17:21:46;5.40;61.70
42097;DHT22;27754;45.414;11.084;2023-02-11T17:24:14;5.40;61.90
42097;DHT22;27754;45.414;11.084;2023-02-11T17:26:42;5.30;61.90
42097;DHT22;27754;45.414;11.084;2023-02-11T17:29:12;5.30;61.90
42097;DHT22;27754;45.414;11.084;2023-02-11T17:31:40;5.30;62.20
42097;DHT22;27754;45.414;11.084;2023-02-11T17:34:08;5.20;62.40
42097;DHT22;27754;45.414;11.084;2023-02-11T17:36:34;5.10;62.60
42097;DHT22;27754;45.414;11.084;2023-02-11T17:39:03;5.10;62.90
42097;DHT22;27754;45.414;11.084;2023-02-11T17:41:36;5.10;63.10
42097;DHT22;27754;45.414;11.084;2023-02-11T17:44:04;5.10;63.20
42097;DHT22;27754;45.414;11.084;2023-02-11T17:46:33;5.00;63.30
42097;DHT22;27754;45.414;11.084;2023-02-11T17:49:01;5.00;63.40
42097;DHT22;27754;45.414;11.084;2023-02-11T17:51:32;5.00;63.60
42097;DHT22;27754;45.414;11.084;2023-02-11T17:54:02;4.90;63.60
42097;DHT22;27754;45.414;11.084;2023-02-11T17:56:34;4.80;63.60
42097;DHT22;27754;45.414;11.084;2023-02-11T17:59:02;4.80;64.10
42097;DHT22;27754;45.414;11.084;2023-02-11T18:01:31;4.70;64.00
42097;DHT22;27754;45.414;11.084;2023-02-11T18:03:59;4.70;64.30
42097;DHT22;27754;45.414;11.084;2023-02-11T18:06:26;4.60;64.50
42097;DHT22;27754;45.414;11.084;2023-02-11T18:08:56;4.60;64.60
42097;DHT22;27754;45.414;11.084;2023-02-11T18:11:25;4.60;64.70
42097;DHT22;27754;45.414;11.084;2023-02-11T18:13:53;4.50;64.90
42097;DHT22;27754;45.414;11.084;2023-02-11T18:16:22;4.40;65.00
42097;DHT22;27754;45.414;11.084;2023-02-11T18:18:49;4.40;65.00
42097;DHT22;27754;45.414;11.084;2023-02-11T18:21:18;4.40;65.10